Piercefield, New York
Current Conditions -  °F | °C
As of 2:51 PM on Friday 31 Oct 2014 (Local Time) from KSLK Reporting Station
Overcast Overcast  
Wind Chill: 38°   Ceiling: 4300
Heat Index: 43°   Visibility: 10mi
Dew Point: 30°   Wind: 9mph
Humidity: 60%   Direction: 50°NE
Pressure: 29.94"   Gusts: NA
Location:  44.23°N, 74.57°W
Report Text: KSLK 311851Z AUTO 05008KT 10SM OVC043 06/M01 A2994 RMK AO2 SLP152 T00611011 $
Loading
Personal Weather Stations






























Interactive Weather Map
Tropical Storm Tracking
New forecast layout! Learn more

10-Day Weather Forecast

Advertisements
Track Severe Weather on mobile